• Join FlightAware (Why Join?)
  • Login
  • US Flag 
07:14AM EDT


 

Airport Tracker/Info


-or-


 

Live Flight TrackerFlight Track Log ✈ UAL4553 ✈ 30-Apr-2013 ✈ KIAH - KLFT

Flight Track Log - Related Links

Times and Time Zones

All times are in EDT time to prevent confusion due to time zone crossing. See the UAL4553 flight status page for this flight to view local times or setup timezone preferences in your user account.

Time Position Orientation Groundspeed Altitude Reporting Facility
EDT Latitude Longitude Course Direction KTS MPH feet Rate Location/Type
08:09PM 29.9661 -95.3456 90° East 141 162 700  Level Houston Center
08:10PM 29.9556 -95.2767 100° East 219 252 2,900 1,440 Climbing Houston Center
08:11PM 29.9519 -95.2192 94° East 227 261 3,800 1,620 Climbing Houston Center
08:12PM 29.9834 -94.8983 90° East  Level FlightAware Approximate
08:12PM 29.9444 -95.1353 96° East 258 297 6,100  Level Houston Center
08:13PM 29.9834 -94.7895 90° East  Level FlightAware Approximate
08:13PM 29.9483 -95.0297 88° East 273 314 9,200  Level Houston Center
08:14PM 29.9833 -94.6807 90° East  Level FlightAware Approximate
08:14PM 29.9544 -94.9364 86° East 288 331 10,900  Level Houston Center
08:15PM 29.9617 -94.8261 86° East 338 389 12,000 1,260 Climbing Houston Center
08:16PM 29.9697 -94.7106 85° East 359 413 13,500 1,440 Climbing Houston Center
08:17PM 29.9781 -94.5900 85° East 373 429 15,000 1,440 Climbing Houston Center
08:18PM 29.9867 -94.4611 86° East 382 440 16,500 960 Climbing Houston Center
08:19PM 29.9950 -94.3328 86° East 400 460 17,000 240 Climbing Houston Center
08:20PM 30.0097 -94.1969 83° East 426 490 17,000  Level Houston Center
08:21PM 30.0272 -94.0606 82° East 432 497 17,000  Level Houston Center
08:22PM 30.0472 -93.9000 82° East 425 489 17,000  Level Houston Center
08:23PM 30.0625 -93.7675 82° East 420 483 17,000  Level Houston Center
08:24PM 30.0781 -93.6372 82° East 415 478 17,000  Level Houston Center
08:25PM 30.0931 -93.5064 82° East 417 480 17,000  Level Houston Center
08:26PM 30.1083 -93.3772 82° East 414 476 17,000  Level Houston Center
08:27PM 30.1239 -93.2472 82° East 415 478 17,000  Level Houston Center
08:28PM 30.1414 -93.0922 83° East 409 471 17,000  Level Houston Center
08:29PM 30.1483 -92.9639 86° East 405 466 17,000 -840 Level Houston Center
08:30PM 30.1542 -92.8372 87° East 398 458 15,300 -1,800 Descending Houston Center
08:31PM 30.1608 -92.7114 86° East 393 452 13,300 -1,860 Descending Houston Center
08:32PM 30.1661 -92.5919 87° East 377 434 11,500 -1,200 Descending Houston Center
08:33PM 30.1731 -92.4831 86° East 348 400 10,900 -1,140 Descending Houston Center
08:35PM 30.1786 -92.3683 87° East 308 354 9,200 -1,680 Descending Houston Center
08:36PM 30.1700 -92.2822 97° East 280 322 7,500 -1,980 Descending Houston Center
08:37PM 30.1558 -92.2003 101° East 264 304 5,200 -2,280 Descending Houston Center